Pagrindinis puslapis
METAR-TAF:

METAR-TAF

Oro uostai :

Neukenas, Argentina

platuma: 38-57S, ilguma: 068-08W, Aukštis: 270 m

Dabartinis oras

Ataskaita buvo paskelbta 2 valandos ir 17 minutes, ne 12:00 UTC
Vėjas 2 kt iš Šiaurės Vakarų
Temperatūra -1°C
Drėgmė 93%
Slėgis 1023 hPa
Matomumas 10 km arba daugiau
nėra debesų žemiau 1500 m ir nėra kamuolinių lietaus debesų

METAR: SAZN 011200Z 32002KT CAVOK M01/M02 Q1023

Laikas: 11:17 (14:17 UTC)

Prognozė

Ataskaita buvo paskelbta 3 valandos ir 17 minutes, ne 11:00 UTC
Prognozė galioja nuo 01 metu 12 UTC su 02 metu 12 UTC
Vėjas 2 kt nuo kintamojo kryptimis
Matomumas: 5000 m
Tapsmas
nuo 01 metu 13 UTC su 01 metu 15 UTC
Vėjas 5 kt iš Vakarų
Matomumas 10 km arba daugiau
nėra debesų žemiau 1500 m ir nėra kamuolinių lietaus debesų

TAF: SAZN 011100Z 0112/0212 VRB02KT 5000 BRNC TX11/0118Z TN00/0112Z BECMG 0113/0115 27005KT CAVOK

Orai ataskaitas ir orų prognozės (METAR, TAF).

turimą stotys yra geltonos ir raudonos taškus žemėlapyje.

Perkelti pele per norėdami pamatyti stoties vardą.

Tada spustelėkite, norėdami matyti oro stebėjimo ir prognozės.

Norėdami pakeisti žemėlapį: spustelėkite ant žalios mygtukų su juodo kryžiaus žemyn,; žalią mygtuką su brūkšneliu, jei norite nutolinti; arba žalių rodyklių gretimoms žemėlapius.


METAR-TAF: